sensor_id;sensor_type;location;lat;lon;timestamp;P1;durP1;ratioP1;P2;durP2;ratioP2
16878;SDS011;8556;52.218;9.884;2022-09-09T00:00:12;2.10;;;1.10;;
16878;SDS011;8556;52.218;9.884;2022-09-09T00:02:40;1.23;;;0.90;;
16878;SDS011;8556;52.218;9.884;2022-09-09T00:05:13;2.05;;;0.75;;
16878;SDS011;8556;52.218;9.884;2022-09-09T00:07:47;1.50;;;1.03;;
16878;SDS011;8556;52.218;9.884;2022-09-09T00:10:19;4.50;;;1.37;;
16878;SDS011;8556;52.218;9.884;2022-09-09T00:12:57;1.87;;;0.80;;
16878;SDS011;8556;52.218;9.884;2022-09-09T00:15:34;1.47;;;0.83;;
16878;SDS011;8556;52.218;9.884;2022-09-09T00:18:07;2.05;;;1.10;;
16878;SDS011;8556;52.218;9.884;2022-09-09T00:20:43;3.17;;;1.00;;
16878;SDS011;8556;52.218;9.884;2022-09-09T00:23:18;3.80;;;1.40;;
16878;SDS011;8556;52.218;9.884;2022-09-09T00:25:53;3.60;;;1.50;;
16878;SDS011;8556;52.218;9.884;2022-09-09T00:28:27;2.63;;;1.10;;
16878;SDS011;8556;52.218;9.884;2022-09-09T00:30:56;1.60;;;1.47;;
16878;SDS011;8556;52.218;9.884;2022-09-09T00:33:28;2.60;;;1.17;;
16878;SDS011;8556;52.218;9.884;2022-09-09T00:35:57;2.00;;;1.17;;
16878;SDS011;8556;52.218;9.884;2022-09-09T00:38:28;1.83;;;1.30;;
16878;SDS011;8556;52.218;9.884;2022-09-09T00:41:01;1.27;;;1.07;;
16878;SDS011;8556;52.218;9.884;2022-09-09T00:43:35;1.53;;;1.13;;
16878;SDS011;8556;52.218;9.884;2022-09-09T00:46:12;2.20;;;1.10;;
16878;SDS011;8556;52.218;9.884;2022-09-09T00:48:58;1.00;;;1.00;;
16878;SDS011;8556;52.218;9.884;2022-09-09T00:51:34;1.47;;;1.17;;
16878;SDS011;8556;52.218;9.884;2022-09-09T00:54:14;1.70;;;1.17;;
16878;SDS011;8556;52.218;9.884;2022-09-09T00:56:53;4.10;;;1.40;;
16878;SDS011;8556;52.218;9.884;2022-09-09T00:59:34;1.67;;;1.53;;
16878;SDS011;8556;52.218;9.884;2022-09-09T01:02:13;4.10;;;1.77;;
16878;SDS011;8556;52.218;9.884;2022-09-09T01:04:48;3.23;;;2.93;;
16878;SDS011;8556;52.218;9.884;2022-09-09T01:07:15;6.33;;;5.40;;
16878;SDS011;8556;52.218;9.884;2022-09-09T01:12:35;7.43;;;6.33;;
16878;SDS011;8556;52.218;9.884;2022-09-09T01:15:11;5.03;;;4.53;;
16878;SDS011;8556;52.218;9.884;2022-09-09T01:17:50;4.47;;;2.37;;
16878;SDS011;8556;52.218;9.884;2022-09-09T01:20:23;3.13;;;1.67;;
16878;SDS011;8556;52.218;9.884;2022-09-09T01:28:46;4.17;;;1.57;;
16878;SDS011;8556;52.218;9.884;2022-09-09T01:31:15;3.03;;;1.27;;
16878;SDS011;8556;52.218;9.884;2022-09-09T01:33:45;3.73;;;1.10;;
16878;SDS011;8556;52.218;9.884;2022-09-09T01:36:13;3.37;;;1.60;;
16878;SDS011;8556;52.218;9.884;2022-09-09T01:38:47;3.20;;;1.70;;
16878;SDS011;8556;52.218;9.884;2022-09-09T01:41:14;4.67;;;2.30;;
16878;SDS011;8556;52.218;9.884;2022-09-09T01:43:43;8.53;;;2.77;;
16878;SDS011;8556;52.218;9.884;2022-09-09T01:46:10;3.80;;;2.50;;
16878;SDS011;8556;52.218;9.884;2022-09-09T01:48:39;4.10;;;2.47;;
16878;SDS011;8556;52.218;9.884;2022-09-09T01:51:07;5.57;;;3.33;;
16878;SDS011;8556;52.218;9.884;2022-09-09T01:53:35;4.70;;;4.13;;
16878;SDS011;8556;52.218;9.884;2022-09-09T01:56:04;5.20;;;4.72;;
16878;SDS011;8556;52.218;9.884;2022-09-09T01:58:45;5.53;;;4.70;;
16878;SDS011;8556;52.218;9.884;2022-09-09T02:01:24;5.40;;;4.90;;
16878;SDS011;8556;52.218;9.884;2022-09-09T02:04:02;4.07;;;3.47;;
16878;SDS011;8556;52.218;9.884;2022-09-09T02:06:35;4.90;;;3.20;;
16878;SDS011;8556;52.218;9.884;2022-09-09T02:09:04;4.87;;;3.10;;
16878;SDS011;8556;52.218;9.884;2022-09-09T02:11:32;4.43;;;2.30;;
16878;SDS011;8556;52.218;9.884;2022-09-09T02:14:02;3.60;;;1.97;;
16878;SDS011;8556;52.218;9.884;2022-09-09T02:16:34;4.80;;;1.73;;
16878;SDS011;8556;52.218;9.884;2022-09-09T02:19:06;3.77;;;1.83;;
16878;SDS011;8556;52.218;9.884;2022-09-09T02:21:38;1.30;;;1.20;;
16878;SDS011;8556;52.218;9.884;2022-09-09T02:24:07;3.60;;;1.60;;
16878;SDS011;8556;52.218;9.884;2022-09-09T02:26:36;2.87;;;1.40;;
16878;SDS011;8556;52.218;9.884;2022-09-09T02:29:09;1.50;;;1.40;;
16878;SDS011;8556;52.218;9.884;2022-09-09T02:31:41;2.60;;;1.57;;
16878;SDS011;8556;52.218;9.884;2022-09-09T02:34:10;2.85;;;1.08;;
16878;SDS011;8556;52.218;9.884;2022-09-09T02:36:40;4.70;;;1.90;;
16878;SDS011;8556;52.218;9.884;2022-09-09T02:39:09;2.97;;;1.60;;
16878;SDS011;8556;52.218;9.884;2022-09-09T02:41:38;2.07;;;1.60;;
16878;SDS011;8556;52.218;9.884;2022-09-09T02:44:10;1.97;;;1.63;;
16878;SDS011;8556;52.218;9.884;2022-09-09T02:46:45;1.80;;;1.70;;
16878;SDS011;8556;52.218;9.884;2022-09-09T02:49:27;3.67;;;1.80;;
16878;SDS011;8556;52.218;9.884;2022-09-09T02:52:04;4.33;;;2.13;;
16878;SDS011;8556;52.218;9.884;2022-09-09T02:54:33;2.43;;;1.83;;
16878;SDS011;8556;52.218;9.884;2022-09-09T02:57:04;3.07;;;1.77;;
16878;SDS011;8556;52.218;9.884;2022-09-09T02:59:38;3.03;;;1.87;;
16878;SDS011;8556;52.218;9.884;2022-09-09T03:02:05;3.33;;;1.90;;
16878;SDS011;8556;52.218;9.884;2022-09-09T03:04:32;2.77;;;1.70;;
16878;SDS011;8556;52.218;9.884;2022-09-09T03:06:59;4.53;;;1.90;;
16878;SDS011;8556;52.218;9.884;2022-09-09T03:09:28;3.57;;;1.80;;
16878;SDS011;8556;52.218;9.884;2022-09-09T03:11:56;4.40;;;1.83;;
16878;SDS011;8556;52.218;9.884;2022-09-09T03:14:23;3.03;;;1.47;;
16878;SDS011;8556;52.218;9.884;2022-09-09T03:16:52;3.43;;;1.43;;
16878;SDS011;8556;52.218;9.884;2022-09-09T03:19:19;5.13;;;2.13;;
16878;SDS011;8556;52.218;9.884;2022-09-09T03:21:47;6.00;;;2.00;;
16878;SDS011;8556;52.218;9.884;2022-09-09T03:24:14;3.33;;;1.50;;
16878;SDS011;8556;52.218;9.884;2022-09-09T03:26:41;2.03;;;1.40;;
16878;SDS011;8556;52.218;9.884;2022-09-09T03:29:10;2.80;;;2.10;;
16878;SDS011;8556;52.218;9.884;2022-09-09T03:31:38;4.80;;;1.40;;
16878;SDS011;8556;52.218;9.884;2022-09-09T03:34:07;3.73;;;1.50;;
16878;SDS011;8556;52.218;9.884;2022-09-09T03:36:34;3.03;;;1.80;;
16878;SDS011;8556;52.218;9.884;2022-09-09T03:39:01;2.60;;;1.47;;
16878;SDS011;8556;52.218;9.884;2022-09-09T03:41:28;3.50;;;1.50;;
16878;SDS011;8556;52.218;9.884;2022-09-09T03:43:56;3.53;;;1.50;;
16878;SDS011;8556;52.218;9.884;2022-09-09T03:46:23;5.20;;;1.73;;
16878;SDS011;8556;52.218;9.884;2022-09-09T03:48:51;3.45;;;1.45;;
16878;SDS011;8556;52.218;9.884;2022-09-09T03:51:20;4.20;;;1.70;;
16878;SDS011;8556;52.218;9.884;2022-09-09T03:53:47;1.53;;;1.10;;
16878;SDS011;8556;52.218;9.884;2022-09-09T03:56:14;4.10;;;1.70;;
16878;SDS011;8556;52.218;9.884;2022-09-09T03:58:46;2.55;;;1.48;;
16878;SDS011;8556;52.218;9.884;2022-09-09T04:01:19;5.18;;;1.95;;
16878;SDS011;8556;52.218;9.884;2022-09-09T04:03:46;4.07;;;1.55;;
16878;SDS011;8556;52.218;9.884;2022-09-09T04:06:13;1.65;;;1.27;;
16878;SDS011;8556;52.218;9.884;2022-09-09T04:08:45;2.22;;;1.45;;
16878;SDS011;8556;52.218;9.884;2022-09-09T04:11:13;2.33;;;1.40;;
16878;SDS011;8556;52.218;9.884;2022-09-09T04:13:41;1.93;;;1.03;;
16878;SDS011;8556;52.218;9.884;2022-09-09T04:16:09;5.57;;;1.73;;
16878;SDS011;8556;52.218;9.884;2022-09-09T04:18:38;5.05;;;1.67;;
16878;SDS011;8556;52.218;9.884;2022-09-09T04:21:05;4.35;;;1.83;;
16878;SDS011;8556;52.218;9.884;2022-09-09T04:23:33;4.32;;;1.90;;
16878;SDS011;8556;52.218;9.884;2022-09-09T04:26:02;4.00;;;1.40;;
16878;SDS011;8556;52.218;9.884;2022-09-09T04:28:31;4.45;;;1.70;;
16878;SDS011;8556;52.218;9.884;2022-09-09T04:31:03;4.90;;;1.65;;
16878;SDS011;8556;52.218;9.884;2022-09-09T04:33:31;5.22;;;1.60;;
16878;SDS011;8556;52.218;9.884;2022-09-09T04:35:58;1.95;;;1.65;;
16878;SDS011;8556;52.218;9.884;2022-09-09T04:38:25;5.30;;;2.63;;
16878;SDS011;8556;52.218;9.884;2022-09-09T04:40:52;12.30;;;7.75;;
16878;SDS011;8556;52.218;9.884;2022-09-09T04:43:20;9.10;;;4.07;;
16878;SDS011;8556;52.218;9.884;2022-09-09T04:45:48;3.88;;;1.60;;
16878;SDS011;8556;52.218;9.884;2022-09-09T04:48:16;2.17;;;1.52;;
16878;SDS011;8556;52.218;9.884;2022-09-09T04:50:43;6.22;;;1.80;;
16878;SDS011;8556;52.218;9.884;2022-09-09T04:53:11;4.77;;;1.70;;
16878;SDS011;8556;52.218;9.884;2022-09-09T04:55:38;7.65;;;3.00;;
16878;SDS011;8556;52.218;9.884;2022-09-09T04:58:05;10.67;;;6.30;;
16878;SDS011;8556;52.218;9.884;2022-09-09T05:00:35;2.83;;;1.90;;
16878;SDS011;8556;52.218;9.884;2022-09-09T05:03:02;2.72;;;1.70;;
16878;SDS011;8556;52.218;9.884;2022-09-09T05:05:30;3.80;;;1.63;;
16878;SDS011;8556;52.218;9.884;2022-09-09T05:08:00;4.10;;;1.48;;
16878;SDS011;8556;52.218;9.884;2022-09-09T05:10:28;4.95;;;1.88;;
16878;SDS011;8556;52.218;9.884;2022-09-09T05:12:56;2.22;;;1.90;;
16878;SDS011;8556;52.218;9.884;2022-09-09T05:15:23;4.18;;;1.65;;
16878;SDS011;8556;52.218;9.884;2022-09-09T05:17:51;3.72;;;1.98;;
16878;SDS011;8556;52.218;9.884;2022-09-09T05:20:18;2.97;;;1.90;;
16878;SDS011;8556;52.218;9.884;2022-09-09T05:22:46;4.88;;;2.05;;
16878;SDS011;8556;52.218;9.884;2022-09-09T05:25:14;3.40;;;2.03;;
16878;SDS011;8556;52.218;9.884;2022-09-09T05:27:41;7.43;;;2.65;;
16878;SDS011;8556;52.218;9.884;2022-09-09T05:30:08;4.57;;;2.80;;
16878;SDS011;8556;52.218;9.884;2022-09-09T05:32:36;4.50;;;2.17;;
16878;SDS011;8556;52.218;9.884;2022-09-09T05:35:04;4.78;;;2.80;;
16878;SDS011;8556;52.218;9.884;2022-09-09T05:37:32;5.65;;;2.80;;
16878;SDS011;8556;52.218;9.884;2022-09-09T05:40:01;5.90;;;2.17;;
16878;SDS011;8556;52.218;9.884;2022-09-09T05:42:29;2.83;;;2.20;;
16878;SDS011;8556;52.218;9.884;2022-09-09T05:44:57;4.90;;;2.22;;
16878;SDS011;8556;52.218;9.884;2022-09-09T05:47:24;4.13;;;2.20;;
16878;SDS011;8556;52.218;9.884;2022-09-09T05:49:53;3.13;;;1.95;;
16878;SDS011;8556;52.218;9.884;2022-09-09T05:52:22;5.40;;;2.03;;
16878;SDS011;8556;52.218;9.884;2022-09-09T05:54:51;2.08;;;1.75;;
16878;SDS011;8556;52.218;9.884;2022-09-09T05:57:19;7.90;;;4.55;;
16878;SDS011;8556;52.218;9.884;2022-09-09T05:59:46;3.85;;;2.05;;
16878;SDS011;8556;52.218;9.884;2022-09-09T06:02:13;3.00;;;2.00;;
16878;SDS011;8556;52.218;9.884;2022-09-09T06:04:40;3.30;;;1.98;;
16878;SDS011;8556;52.218;9.884;2022-09-09T06:07:07;3.38;;;1.88;;
16878;SDS011;8556;52.218;9.884;2022-09-09T06:09:35;3.28;;;1.90;;
16878;SDS011;8556;52.218;9.884;2022-09-09T06:12:03;2.72;;;1.92;;
16878;SDS011;8556;52.218;9.884;2022-09-09T06:14:30;3.10;;;2.08;;
16878;SDS011;8556;52.218;9.884;2022-09-09T06:16:57;4.45;;;2.20;;
16878;SDS011;8556;52.218;9.884;2022-09-09T06:19:24;3.60;;;2.08;;
16878;SDS011;8556;52.218;9.884;2022-09-09T06:21:52;4.38;;;2.08;;
16878;SDS011;8556;52.218;9.884;2022-09-09T06:24:19;2.58;;;1.92;;
16878;SDS011;8556;52.218;9.884;2022-09-09T06:26:49;3.92;;;1.92;;
16878;SDS011;8556;52.218;9.884;2022-09-09T06:29:16;4.32;;;2.00;;
16878;SDS011;8556;52.218;9.884;2022-09-09T06:31:44;3.05;;;1.73;;
16878;SDS011;8556;52.218;9.884;2022-09-09T06:34:12;5.57;;;3.38;;
16878;SDS011;8556;52.218;9.884;2022-09-09T06:36:39;5.03;;;3.30;;
16878;SDS011;8556;52.218;9.884;2022-09-09T06:39:06;4.72;;;3.38;;
16878;SDS011;8556;52.218;9.884;2022-09-09T06:41:36;5.80;;;3.28;;
16878;SDS011;8556;52.218;9.884;2022-09-09T06:44:05;5.30;;;2.20;;
16878;SDS011;8556;52.218;9.884;2022-09-09T06:46:32;3.13;;;2.05;;
16878;SDS011;8556;52.218;9.884;2022-09-09T06:49:00;4.95;;;2.35;;
16878;SDS011;8556;52.218;9.884;2022-09-09T06:51:29;3.55;;;1.98;;
16878;SDS011;8556;52.218;9.884;2022-09-09T06:53:58;5.85;;;2.15;;
16878;SDS011;8556;52.218;9.884;2022-09-09T06:56:27;4.45;;;1.70;;
16878;SDS011;8556;52.218;9.884;2022-09-09T06:58:56;4.15;;;1.48;;
16878;SDS011;8556;52.218;9.884;2022-09-09T07:01:31;4.75;;;2.08;;
16878;SDS011;8556;52.218;9.884;2022-09-09T07:03:59;2.95;;;1.40;;
16878;SDS011;8556;52.218;9.884;2022-09-09T07:06:27;6.18;;;1.50;;
16878;SDS011;8556;52.218;9.884;2022-09-09T07:08:56;1.90;;;1.48;;
16878;SDS011;8556;52.218;9.884;2022-09-09T07:11:25;2.97;;;1.50;;
16878;SDS011;8556;52.218;9.884;2022-09-09T07:13:53;3.38;;;1.80;;
16878;SDS011;8556;52.218;9.884;2022-09-09T07:16:21;7.03;;;1.45;;
16878;SDS011;8556;52.218;9.884;2022-09-09T07:18:51;4.63;;;1.63;;
16878;SDS011;8556;52.218;9.884;2022-09-09T07:21:22;4.80;;;1.52;;
16878;SDS011;8556;52.218;9.884;2022-09-09T07:23:51;4.22;;;1.40;;
16878;SDS011;8556;52.218;9.884;2022-09-09T07:26:19;3.10;;;1.70;;
16878;SDS011;8556;52.218;9.884;2022-09-09T07:28:48;2.85;;;1.60;;
16878;SDS011;8556;52.218;9.884;2022-09-09T07:31:15;3.05;;;1.80;;
16878;SDS011;8556;52.218;9.884;2022-09-09T07:33:45;3.78;;;1.58;;
16878;SDS011;8556;52.218;9.884;2022-09-09T07:36:14;3.22;;;1.35;;
16878;SDS011;8556;52.218;9.884;2022-09-09T07:38:43;2.85;;;1.65;;
16878;SDS011;8556;52.218;9.884;2022-09-09T07:41:11;4.78;;;1.95;;
16878;SDS011;8556;52.218;9.884;2022-09-09T07:43:40;3.35;;;1.38;;
16878;SDS011;8556;52.218;9.884;2022-09-09T07:46:08;6.32;;;1.58;;
16878;SDS011;8556;52.218;9.884;2022-09-09T07:48:37;4.53;;;2.70;;
16878;SDS011;8556;52.218;9.884;2022-09-09T07:51:06;4.65;;;2.25;;
16878;SDS011;8556;52.218;9.884;2022-09-09T07:53:37;3.72;;;2.45;;
16878;SDS011;8556;52.218;9.884;2022-09-09T07:56:06;4.25;;;1.95;;
16878;SDS011;8556;52.218;9.884;2022-09-09T07:58:34;3.85;;;1.20;;
16878;SDS011;8556;52.218;9.884;2022-09-09T08:01:06;5.07;;;1.63;;
16878;SDS011;8556;52.218;9.884;2022-09-09T08:03:35;6.30;;;1.60;;
16878;SDS011;8556;52.218;9.884;2022-09-09T08:06:02;4.07;;;1.45;;
16878;SDS011;8556;52.218;9.884;2022-09-09T08:08:32;2.80;;;1.58;;
16878;SDS011;8556;52.218;9.884;2022-09-09T08:11:04;4.43;;;1.85;;
16878;SDS011;8556;52.218;9.884;2022-09-09T08:13:32;4.63;;;1.70;;
16878;SDS011;8556;52.218;9.884;2022-09-09T08:16:06;3.13;;;1.60;;
16878;SDS011;8556;52.218;9.884;2022-09-09T08:18:35;3.83;;;1.58;;
16878;SDS011;8556;52.218;9.884;2022-09-09T08:21:09;1.92;;;1.60;;
16878;SDS011;8556;52.218;9.884;2022-09-09T08:23:38;6.47;;;1.85;;
16878;SDS011;8556;52.218;9.884;2022-09-09T08:26:10;5.25;;;1.73;;
16878;SDS011;8556;52.218;9.884;2022-09-09T08:28:38;2.40;;;1.48;;
16878;SDS011;8556;52.218;9.884;2022-09-09T08:31:07;5.65;;;1.75;;
16878;SDS011;8556;52.218;9.884;2022-09-09T08:33:35;3.03;;;1.30;;
16878;SDS011;8556;52.218;9.884;2022-09-09T08:36:03;4.60;;;1.70;;
16878;SDS011;8556;52.218;9.884;2022-09-09T08:38:32;4.80;;;1.70;;
16878;SDS011;8556;52.218;9.884;2022-09-09T08:41:04;4.80;;;1.42;;
16878;SDS011;8556;52.218;9.884;2022-09-09T08:43:52;2.67;;;1.38;;
16878;SDS011;8556;52.218;9.884;2022-09-09T08:46:30;5.68;;;1.65;;
16878;SDS011;8556;52.218;9.884;2022-09-09T08:49:03;3.35;;;1.38;;
16878;SDS011;8556;52.218;9.884;2022-09-09T08:51:38;2.50;;;1.17;;
16878;SDS011;8556;52.218;9.884;2022-09-09T08:54:05;2.50;;;1.17;;
16878;SDS011;8556;52.218;9.884;2022-09-09T08:56:35;2.47;;;1.40;;
16878;SDS011;8556;52.218;9.884;2022-09-09T08:59:03;4.88;;;1.40;;
16878;SDS011;8556;52.218;9.884;2022-09-09T09:01:35;3.60;;;1.63;;
16878;SDS011;8556;52.218;9.884;2022-09-09T09:04:13;3.03;;;1.67;;
16878;SDS011;8556;52.218;9.884;2022-09-09T09:06:53;4.60;;;1.23;;
16878;SDS011;8556;52.218;9.884;2022-09-09T09:09:31;3.88;;;1.15;;
16878;SDS011;8556;52.218;9.884;2022-09-09T09:12:10;4.78;;;1.60;;
16878;SDS011;8556;52.218;9.884;2022-09-09T09:14:42;3.03;;;1.38;;
16878;SDS011;8556;52.218;9.884;2022-09-09T09:17:12;2.63;;;1.45;;
16878;SDS011;8556;52.218;9.884;2022-09-09T09:19:42;3.60;;;1.45;;
16878;SDS011;8556;52.218;9.884;2022-09-09T09:22:14;5.40;;;1.45;;
16878;SDS011;8556;52.218;9.884;2022-09-09T09:24:47;5.65;;;2.00;;
16878;SDS011;8556;52.218;9.884;2022-09-09T09:27:21;2.42;;;1.38;;
16878;SDS011;8556;52.218;9.884;2022-09-09T09:29:56;2.55;;;1.63;;
16878;SDS011;8556;52.218;9.884;2022-09-09T09:32:26;5.47;;;1.90;;
16878;SDS011;8556;52.218;9.884;2022-09-09T09:34:57;3.45;;;1.17;;
16878;SDS011;8556;52.218;9.884;2022-09-09T09:37:28;2.22;;;1.48;;
16878;SDS011;8556;52.218;9.884;2022-09-09T09:40:07;1.42;;;0.82;;
16878;SDS011;8556;52.218;9.884;2022-09-09T09:42:36;5.00;;;1.42;;
16878;SDS011;8556;52.218;9.884;2022-09-09T09:45:07;5.20;;;1.95;;
16878;SDS011;8556;52.218;9.884;2022-09-09T09:47:41;2.95;;;1.77;;
16878;SDS011;8556;52.218;9.884;2022-09-09T09:50:16;4.10;;;1.42;;
16878;SDS011;8556;52.218;9.884;2022-09-09T09:52:52;2.45;;;0.93;;
16878;SDS011;8556;52.218;9.884;2022-09-09T09:55:22;2.88;;;1.42;;
16878;SDS011;8556;52.218;9.884;2022-09-09T09:57:51;2.60;;;1.50;;
16878;SDS011;8556;52.218;9.884;2022-09-09T10:00:19;2.83;;;1.45;;
16878;SDS011;8556;52.218;9.884;2022-09-09T10:02:47;3.70;;;1.50;;
16878;SDS011;8556;52.218;9.884;2022-09-09T10:05:18;7.88;;;2.35;;
16878;SDS011;8556;52.218;9.884;2022-09-09T10:07:46;9.02;;;1.73;;
16878;SDS011;8556;52.218;9.884;2022-09-09T10:10:15;7.25;;;2.75;;
16878;SDS011;8556;52.218;9.884;2022-09-09T10:12:49;4.90;;;1.73;;
16878;SDS011;8556;52.218;9.884;2022-09-09T10:15:30;3.88;;;1.38;;
16878;SDS011;8556;52.218;9.884;2022-09-09T10:18:04;3.65;;;1.95;;
16878;SDS011;8556;52.218;9.884;2022-09-09T10:20:44;2.80;;;1.60;;
16878;SDS011;8556;52.218;9.884;2022-09-09T10:23:27;5.10;;;1.30;;
16878;SDS011;8556;52.218;9.884;2022-09-09T10:26:12;7.68;;;1.77;;
16878;SDS011;8556;52.218;9.884;2022-09-09T10:29:06;6.57;;;1.75;;
16878;SDS011;8556;52.218;9.884;2022-09-09T10:31:48;4.97;;;1.42;;
16878;SDS011;8556;52.218;9.884;2022-09-09T10:34:26;5.00;;;1.50;;
16878;SDS011;8556;52.218;9.884;2022-09-09T10:37:11;3.40;;;1.25;;
16878;SDS011;8556;52.218;9.884;2022-09-09T10:39:47;2.47;;;1.48;;
16878;SDS011;8556;52.218;9.884;2022-09-09T10:42:23;3.85;;;1.30;;
16878;SDS011;8556;52.218;9.884;2022-09-09T10:45:00;4.63;;;1.27;;
16878;SDS011;8556;52.218;9.884;2022-09-09T10:50:38;3.78;;;1.58;;
16878;SDS011;8556;52.218;9.884;2022-09-09T10:53:14;5.88;;;1.60;;
16878;SDS011;8556;52.218;9.884;2022-09-09T10:55:48;2.95;;;2.05;;
16878;SDS011;8556;52.218;9.884;2022-09-09T10:58:20;3.83;;;2.13;;
16878;SDS011;8556;52.218;9.884;2022-09-09T11:00:54;4.10;;;1.52;;
16878;SDS011;8556;52.218;9.884;2022-09-09T11:03:27;3.03;;;0.90;;
16878;SDS011;8556;52.218;9.884;2022-09-09T11:05:56;2.28;;;0.85;;
16878;SDS011;8556;52.218;9.884;2022-09-09T11:08:26;4.25;;;1.42;;
16878;SDS011;8556;52.218;9.884;2022-09-09T11:10:57;3.83;;;1.20;;
16878;SDS011;8556;52.218;9.884;2022-09-09T11:13:30;4.50;;;1.38;;
16878;SDS011;8556;52.218;9.884;2022-09-09T11:16:13;3.92;;;1.00;;
16878;SDS011;8556;52.218;9.884;2022-09-09T11:18:48;4.85;;;1.27;;
16878;SDS011;8556;52.218;9.884;2022-09-09T11:21:17;4.50;;;1.00;;
16878;SDS011;8556;52.218;9.884;2022-09-09T11:23:48;3.47;;;1.30;;
16878;SDS011;8556;52.218;9.884;2022-09-09T11:26:21;3.90;;;1.30;;
16878;SDS011;8556;52.218;9.884;2022-09-09T11:28:57;2.78;;;1.33;;
16878;SDS011;8556;52.218;9.884;2022-09-09T11:31:40;2.00;;;0.98;;
16878;SDS011;8556;52.218;9.884;2022-09-09T11:34:15;3.63;;;1.15;;
16878;SDS011;8556;52.218;9.884;2022-09-09T11:37:03;3.38;;;1.10;;
16878;SDS011;8556;52.218;9.884;2022-09-09T11:39:47;2.88;;;0.93;;
16878;SDS011;8556;52.218;9.884;2022-09-09T11:42:26;3.33;;;1.02;;
16878;SDS011;8556;52.218;9.884;2022-09-09T11:44:53;1.80;;;1.10;;
16878;SDS011;8556;52.218;9.884;2022-09-09T11:47:24;3.88;;;1.83;;
16878;SDS011;8556;52.218;9.884;2022-09-09T11:49:55;4.55;;;1.52;;
16878;SDS011;8556;52.218;9.884;2022-09-09T11:52:36;3.03;;;1.42;;
16878;SDS011;8556;52.218;9.884;2022-09-09T11:55:08;5.30;;;2.05;;
16878;SDS011;8556;52.218;9.884;2022-09-09T11:57:36;5.43;;;3.92;;
16878;SDS011;8556;52.218;9.884;2022-09-09T12:00:04;4.40;;;3.00;;
16878;SDS011;8556;52.218;9.884;2022-09-09T12:02:35;2.25;;;1.30;;
16878;SDS011;8556;52.218;9.884;2022-09-09T12:05:02;4.13;;;1.35;;
16878;SDS011;8556;52.218;9.884;2022-09-09T12:07:34;2.45;;;0.80;;
16878;SDS011;8556;52.218;9.884;2022-09-09T12:10:05;2.13;;;1.00;;
16878;SDS011;8556;52.218;9.884;2022-09-09T12:12:49;2.67;;;1.65;;
16878;SDS011;8556;52.218;9.884;2022-09-09T12:15:18;3.05;;;0.93;;
16878;SDS011;8556;52.218;9.884;2022-09-09T12:17:49;3.03;;;0.98;;
16878;SDS011;8556;52.218;9.884;2022-09-09T12:20:19;1.77;;;0.65;;
16878;SDS011;8556;52.218;9.884;2022-09-09T12:22:51;1.23;;;0.60;;
16878;SDS011;8556;52.218;9.884;2022-09-09T12:25:46;2.45;;;0.98;;
16878;SDS011;8556;52.218;9.884;2022-09-09T12:28:30;2.95;;;0.98;;
16878;SDS011;8556;52.218;9.884;2022-09-09T12:31:08;3.47;;;0.90;;
16878;SDS011;8556;52.218;9.884;2022-09-09T12:33:44;1.67;;;0.68;;
16878;SDS011;8556;52.218;9.884;2022-09-09T12:36:13;1.23;;;0.73;;
16878;SDS011;8556;52.218;9.884;2022-09-09T12:38:43;2.00;;;0.82;;
16878;SDS011;8556;52.218;9.884;2022-09-09T12:41:17;1.75;;;0.60;;
16878;SDS011;8556;52.218;9.884;2022-09-09T12:43:46;1.48;;;0.90;;
16878;SDS011;8556;52.218;9.884;2022-09-09T12:46:16;5.38;;;1.38;;
16878;SDS011;8556;52.218;9.884;2022-09-09T12:48:53;1.58;;;1.20;;
16878;SDS011;8556;52.218;9.884;2022-09-09T12:51:22;3.25;;;1.20;;
16878;SDS011;8556;52.218;9.884;2022-09-09T12:53:52;1.38;;;0.75;;
16878;SDS011;8556;52.218;9.884;2022-09-09T12:56:20;1.80;;;0.95;;
16878;SDS011;8556;52.218;9.884;2022-09-09T12:58:48;2.45;;;0.95;;
16878;SDS011;8556;52.218;9.884;2022-09-09T13:01:20;3.83;;;1.17;;
16878;SDS011;8556;52.218;9.884;2022-09-09T13:03:48;1.83;;;1.00;;
16878;SDS011;8556;52.218;9.884;2022-09-09T13:06:20;1.45;;;0.77;;
16878;SDS011;8556;52.218;9.884;2022-09-09T13:08:49;5.07;;;1.33;;
16878;SDS011;8556;52.218;9.884;2022-09-09T13:11:17;4.07;;;1.77;;
16878;SDS011;8556;52.218;9.884;2022-09-09T13:13:52;4.32;;;2.00;;
16878;SDS011;8556;52.218;9.884;2022-09-09T13:16:21;4.53;;;2.03;;
16878;SDS011;8556;52.218;9.884;2022-09-09T13:18:51;4.32;;;1.52;;
16878;SDS011;8556;52.218;9.884;2022-09-09T13:21:31;5.57;;;1.95;;
16878;SDS011;8556;52.218;9.884;2022-09-09T13:23:59;3.72;;;1.15;;
16878;SDS011;8556;52.218;9.884;2022-09-09T13:26:28;4.20;;;1.50;;
16878;SDS011;8556;52.218;9.884;2022-09-09T13:28:55;3.08;;;1.70;;
16878;SDS011;8556;52.218;9.884;2022-09-09T13:31:42;3.08;;;1.30;;
16878;SDS011;8556;52.218;9.884;2022-09-09T13:34:11;2.13;;;1.20;;
16878;SDS011;8556;52.218;9.884;2022-09-09T13:36:41;3.92;;;1.55;;
16878;SDS011;8556;52.218;9.884;2022-09-09T13:39:15;7.78;;;2.33;;
16878;SDS011;8556;52.218;9.884;2022-09-09T13:41:44;3.67;;;1.17;;
16878;SDS011;8556;52.218;9.884;2022-09-09T13:44:17;3.15;;;1.10;;
16878;SDS011;8556;52.218;9.884;2022-09-09T13:46:59;1.75;;;1.13;;
16878;SDS011;8556;52.218;9.884;2022-09-09T13:49:29;3.15;;;1.08;;
16878;SDS011;8556;52.218;9.884;2022-09-09T13:52:08;2.72;;;1.10;;
16878;SDS011;8556;52.218;9.884;2022-09-09T13:54:39;1.65;;;1.10;;
16878;SDS011;8556;52.218;9.884;2022-09-09T13:57:13;1.48;;;0.93;;
16878;SDS011;8556;52.218;9.884;2022-09-09T13:59:43;1.58;;;1.30;;
16878;SDS011;8556;52.218;9.884;2022-09-09T14:02:10;2.83;;;1.05;;
16878;SDS011;8556;52.218;9.884;2022-09-09T14:04:36;2.30;;;1.45;;
16878;SDS011;8556;52.218;9.884;2022-09-09T14:07:07;5.25;;;1.70;;
16878;SDS011;8556;52.218;9.884;2022-09-09T14:09:37;2.08;;;0.90;;
16878;SDS011;8556;52.218;9.884;2022-09-09T14:12:04;2.22;;;1.05;;
16878;SDS011;8556;52.218;9.884;2022-09-09T14:14:31;1.88;;;1.05;;
16878;SDS011;8556;52.218;9.884;2022-09-09T14:16:58;4.63;;;1.73;;
16878;SDS011;8556;52.218;9.884;2022-09-09T14:19:25;8.02;;;1.80;;
16878;SDS011;8556;52.218;9.884;2022-09-09T14:21:52;4.80;;;1.33;;
16878;SDS011;8556;52.218;9.884;2022-09-09T14:24:20;1.73;;;0.90;;
16878;SDS011;8556;52.218;9.884;2022-09-09T14:26:47;1.48;;;1.10;;
16878;SDS011;8556;52.218;9.884;2022-09-09T14:29:14;9.00;;;1.48;;
16878;SDS011;8556;52.218;9.884;2022-09-09T14:31:41;1.48;;;1.10;;
16878;SDS011;8556;52.218;9.884;2022-09-09T14:34:07;2.47;;;1.48;;
16878;SDS011;8556;52.218;9.884;2022-09-09T14:36:35;1.75;;;1.20;;
16878;SDS011;8556;52.218;9.884;2022-09-09T14:39:02;2.83;;;1.63;;
16878;SDS011;8556;52.218;9.884;2022-09-09T14:41:31;2.72;;;1.40;;
16878;SDS011;8556;52.218;9.884;2022-09-09T14:43:58;3.20;;;1.27;;
16878;SDS011;8556;52.218;9.884;2022-09-09T14:46:25;3.40;;;1.55;;
16878;SDS011;8556;52.218;9.884;2022-09-09T14:48:52;2.60;;;1.48;;
16878;SDS011;8556;52.218;9.884;2022-09-09T14:51:20;1.75;;;1.40;;
16878;SDS011;8556;52.218;9.884;2022-09-09T14:53:48;5.28;;;1.50;;
16878;SDS011;8556;52.218;9.884;2022-09-09T14:56:19;4.93;;;1.55;;
16878;SDS011;8556;52.218;9.884;2022-09-09T14:58:49;3.88;;;1.40;;
16878;SDS011;8556;52.218;9.884;2022-09-09T15:01:18;2.83;;;1.60;;
16878;SDS011;8556;52.218;9.884;2022-09-09T15:03:48;2.08;;;1.70;;
16878;SDS011;8556;52.218;9.884;2022-09-09T15:06:17;1.80;;;1.45;;
16878;SDS011;8556;52.218;9.884;2022-09-09T15:08:44;3.80;;;1.80;;
16878;SDS011;8556;52.218;9.884;2022-09-09T15:11:13;2.97;;;1.23;;
16878;SDS011;8556;52.218;9.884;2022-09-09T15:13:40;2.20;;;1.00;;
16878;SDS011;8556;52.218;9.884;2022-09-09T15:16:10;1.85;;;1.20;;
16878;SDS011;8556;52.218;9.884;2022-09-09T15:18:38;4.78;;;1.10;;
16878;SDS011;8556;52.218;9.884;2022-09-09T15:21:07;2.22;;;0.93;;
16878;SDS011;8556;52.218;9.884;2022-09-09T15:23:35;1.52;;;0.93;;
16878;SDS011;8556;52.218;9.884;2022-09-09T15:26:02;1.30;;;1.00;;
16878;SDS011;8556;52.218;9.884;2022-09-09T15:28:30;1.92;;;0.80;;
16878;SDS011;8556;52.218;9.884;2022-09-09T15:31:04;3.63;;;0.77;;
16878;SDS011;8556;52.218;9.884;2022-09-09T15:33:33;1.60;;;0.80;;